5th Annual Muskrat 5K Run/Walk

back to results

Feb. 13, 2010

5th Annual Muskrat 5K Run/Walk
Monroe, MI
Provided by Everal Race Management


Overall Female Overall Winners



Place Name City Bib No Age Overall Time Pace
1 Ashley Nichols Monroe MI 472 14 7 22:03 7:07/M


Overall Male Overall Winners



Place Name City Bib No Age Overall Time Pace
1 John Webb Newport MI 458 16 1 17:45 5:44/M


Female 18 & under



Place Name City Bib No Age Overall Time Pace
1 Winonah Krug Monroe MI 132 18 8 22:29 7:15/M
2 Heather Beaver Newport MI 465 11 19 25:37 8:16/M
3 Breeanna Simmons Newport MI 147 15 36 28:13 9:06/M
4 Halley Bezeau Monroe MI 104 16 37 28:13 9:06/M


Male 18 & under



Place Name City Bib No Age Overall Time Pace
1 Mark Tizedes Temperance MI 459 16 3 19:44 6:22/M
2 Brent Leonhardt Monroe MI 133 16 33 28:08 9:05/M
3 Cody Weiss Newport MI 156 0 75 41:15 13:18/M
4 Andrew Rayl Monroe MI 142 14 82 54:35 17:36/M


Female 19 to 29



Place Name City Bib No Age Overall Time Pace
1 Andrea Hoffman Monroe MI 476 20 10 23:21 7:32/M
2 Megann Tremonti Monroe MI 152 26 15 24:27 7:53/M
3 Jill Calkins Monroe MI 108 29 24 26:48 8:39/M
4 Julia Baird Toledo OH 475 19 34 28:08 9:05/M
5 Hilary Hayde Monroe MI 480 26 49 30:40 9:54/M
6 Rachel Krueger La Salle MI 130 29 61 33:31 10:49/M
7 Emily Morris Monroe MI 136 26 63 34:14 11:03/M
8 Lindsey MacLin Monroe MI 134 21 65 35:40 11:30/M


Male 19 to 29



Place Name City Bib No Age Overall Time Pace
1 Aaron Al-Sorghali Toledo OH 478 24 2 17:59 5:48/M
2 Nathan McCarty Monroe MI 457 28 20 25:41 8:17/M
3 Nicholas Lavay Toledo OH 477 24 32 28:07 9:04/M


Female 30 to 39



Place Name City Bib No Age Overall Time Pace
1 Christine Brewer Newport MI 105 35 18 25:19 8:10/M
2 Sarah Jacobs Kansas City MO 125 30 28 27:40 8:55/M
3 Marie Deline Newport MI 462 32 40 28:27 9:11/M
4 Dusti Janda Carleton MI 126 37 44 29:13 9:25/M
5 Monica Wagner Monroe MI 155 32 45 29:20 9:28/M
6 Becky Hyduke-Rundall Monroe MI 124 35 51 31:36 10:12/M
7 Kimberly Beaubien Monroe MI 102 36 55 32:40 10:32/M
8 Teri Scznsny Monroe MI 146 35 57 32:58 10:38/M
9 Angel Vance Toledo OH 153 34 58 32:59 10:38/M
10 Sylvia Mulshine Monroe MI 138 35 74 40:10 12:57/M
11 Jill Sieler Monroe MI 471 36 77 43:15 13:57/M
12 Nanette Gribble Monroe MI 122 33 80 51:02 16:28/M


Male 30 to 39



Place Name City Bib No Age Overall Time Pace
1 Kyle Nelson Flint MI 483 35 5 21:26 6:55/M
2 Reuben Younglove Carleton MI 473 39 6 22:00 7:06/M
3 Mike Mulherin Newport MI 137 36 9 22:51 7:22/M
4 Deric Tedora Monroe MI 150 34 11 23:37 7:37/M
5 Phil Masserant Newport MI 135 36 14 24:23 7:52/M
6 John Garrett Monroe MI 119 36 16 24:30 7:54/M
7 Andy Zukowski Monroe MI 159 34 38 28:14 9:06/M
8 Scott Lavis Brownstown MI 470 38 41 28:51 9:18/M
9 Eric Cowing Houghton Lake MI 114 36 42 29:04 9:23/M
10 Jon Lock Monroe MI 474 34 46 29:21 9:28/M
11 Jeffrey Pratt Newport MI 141 37 50 31:31 10:10/M
12 Mike Scznsny Monroe MI 145 34 59 33:08 10:41/M
13 Robert Krueger La Salle MI 131 31 62 33:32 10:49/M
14 Jason Gribble Monroe MI 121 38 68 37:47 12:11/M


Female 40 to 49



Place Name City Bib No Age Overall Time Pace
1 Beth Gilday Trenton MI 469 49 12 23:56 7:43/M
2 Michele Horvath New Boston MI 481 47 21 26:29 8:33/M
3 Sue Kuzich Monroe MI 161 45 29 27:51 8:59/M
4 Karin Johnson Monroe MI 479 43 48 30:37 9:53/M
5 Cathy Mikesel Newport MI 482 43 56 32:40 10:32/M
6 Deanna Swan Saline MI 148 44 78 44:16 14:17/M
7 Tracy Rayl Milan MI 144 41 81 54:34 17:36/M


Male 40 to 49



Place Name City Bib No Age Overall Time Pace
1 Todd Kelly Troy MI 464 48 4 20:27 6:36/M
2 Vladimir Vjatschslav Monroe MI 466 45 22 26:39 8:36/M
3 Kevin Dahm Monroe MI 115 49 26 27:08 8:45/M
4 Scott Johnson Monroe MI 127 45 30 27:53 9:00/M
5 William Goudreau Gibraltar MI 461 41 35 28:12 9:06/M
6 Curtis Miller Carleton MI 463 40 39 28:14 9:06/M
7 Karl Hauser Monroe MI 123 44 43 29:07 9:24/M
8 Gary Pareyt Monroe MI 139 46 47 30:26 9:49/M
9 Brad Baumann Monroe MI 101 46 64 35:17 11:23/M
10 Sean Parkinson Dundee MI 140 48 67 37:38 12:08/M


Female 50 to 59



Place Name City Bib No Age Overall Time Pace
1 Michele Chakmakian Monroe MI 109 53 53 31:55 10:18/M
2 Marie Brown Taylor MI 107 50 60 33:25 10:47/M
3 Judy Zukowski Dundee MI 160 59 66 37:02 11:57/M
4 Sharon Chidester Sylvania OH 111 59 70 38:33 12:26/M
5 Barbara Giarmo Monroe MI 120 54 73 40:00 12:54/M


Male 50 to 59



Place Name City Bib No Age Overall Time Pace
1 Danny Swindle Newport MI 149 50 13 24:16 7:50/M
2 David Brown Taylor MI 106 50 17 24:40 7:57/M
3 Evans Bentley Monroe MI 103 54 23 26:45 8:38/M
4 Marty Keller La Salle MI 128 53 25 26:52 8:40/M
5 Blu Dusitane Monroe MI 460 53 52 31:49 10:16/M
6 Thomas La Beau Monroe MI 468 51 72 38:36 12:27/M
7 Helen La Beau Monroe MI 467 52 76 42:20 13:39/M


Female 60 to 69



Place Name City Bib No Age Overall Time Pace
1 Shirley Torrance Saline MI 151 64 54 32:04 10:21/M


Male 60 to 69



Place Name City Bib No Age Overall Time Pace
1 Jack Volker Monroe MI 154 62 27 27:37 8:55/M
2 Mike Cornelison Monroe MI 113 60 31 28:03 9:03/M
3 Dave Yentz Monroe MI 158 60 69 37:55 12:14/M
4 Bill Chidester Sylvania OH 110 60 71 38:34 12:26/M
5 Peter Erdman Monroe MI 116 69 79 48:58 15:48/M





Monroe, MI
Provided by Everal Race Management